sensor_id;sensor_type;location;lat;lon;timestamp;temperature;humidity
13673;DHT22;6909;52.202;9.876;2024-01-16T00:00:11;1.00;99.90
13673;DHT22;6909;52.202;9.876;2024-01-16T00:02:38;1.00;99.90
13673;DHT22;6909;52.202;9.876;2024-01-16T00:05:06;1.10;99.90
13673;DHT22;6909;52.202;9.876;2024-01-16T00:07:33;1.10;99.90
13673;DHT22;6909;52.202;9.876;2024-01-16T00:10:00;1.10;99.90
13673;DHT22;6909;52.202;9.876;2024-01-16T00:12:27;1.10;99.90
13673;DHT22;6909;52.202;9.876;2024-01-16T00:14:54;1.10;99.90
13673;DHT22;6909;52.202;9.876;2024-01-16T00:17:22;1.10;99.90
13673;DHT22;6909;52.202;9.876;2024-01-16T00:19:48;1.10;99.90
13673;DHT22;6909;52.202;9.876;2024-01-16T00:22:15;1.10;99.90
13673;DHT22;6909;52.202;9.876;2024-01-16T00:24:42;1.10;99.90
13673;DHT22;6909;52.202;9.876;2024-01-16T00:27:08;1.10;99.90
13673;DHT22;6909;52.202;9.876;2024-01-16T00:29:35;1.10;99.90
13673;DHT22;6909;52.202;9.876;2024-01-16T00:32:02;1.10;99.90
13673;DHT22;6909;52.202;9.876;2024-01-16T00:34:30;1.10;99.90
13673;DHT22;6909;52.202;9.876;2024-01-16T00:36:56;1.10;99.90
13673;DHT22;6909;52.202;9.876;2024-01-16T00:39:23;1.20;99.90
13673;DHT22;6909;52.202;9.876;2024-01-16T00:41:50;1.20;99.90
13673;DHT22;6909;52.202;9.876;2024-01-16T00:44:16;1.20;99.90
13673;DHT22;6909;52.202;9.876;2024-01-16T00:46:43;1.20;99.90
13673;DHT22;6909;52.202;9.876;2024-01-16T00:49:09;1.10;99.90
13673;DHT22;6909;52.202;9.876;2024-01-16T00:51:37;1.10;99.90
13673;DHT22;6909;52.202;9.876;2024-01-16T00:54:04;1.20;99.90
13673;DHT22;6909;52.202;9.876;2024-01-16T00:56:33;1.10;99.90
13673;DHT22;6909;52.202;9.876;2024-01-16T00:59:00;1.10;99.90
13673;DHT22;6909;52.202;9.876;2024-01-16T01:01:26;1.10;99.90
13673;DHT22;6909;52.202;9.876;2024-01-16T01:03:53;1.10;99.90
13673;DHT22;6909;52.202;9.876;2024-01-16T01:06:21;1.10;99.90
13673;DHT22;6909;52.202;9.876;2024-01-16T01:08:49;1.10;99.90
13673;DHT22;6909;52.202;9.876;2024-01-16T01:11:16;1.10;99.90
13673;DHT22;6909;52.202;9.876;2024-01-16T01:13:43;1.10;99.90
13673;DHT22;6909;52.202;9.876;2024-01-16T01:16:09;1.10;99.90
13673;DHT22;6909;52.202;9.876;2024-01-16T01:18:36;1.10;99.90
13673;DHT22;6909;52.202;9.876;2024-01-16T01:21:03;1.10;99.90
13673;DHT22;6909;52.202;9.876;2024-01-16T01:23:29;1.10;99.90
13673;DHT22;6909;52.202;9.876;2024-01-16T01:25:57;1.00;99.90
13673;DHT22;6909;52.202;9.876;2024-01-16T01:28:24;1.00;99.90
13673;DHT22;6909;52.202;9.876;2024-01-16T01:30:51;1.00;99.90
13673;DHT22;6909;52.202;9.876;2024-01-16T01:33:17;1.00;99.90
13673;DHT22;6909;52.202;9.876;2024-01-16T01:35:44;1.00;99.90
13673;DHT22;6909;52.202;9.876;2024-01-16T01:38:11;1.00;99.90
13673;DHT22;6909;52.202;9.876;2024-01-16T01:40:37;1.00;99.90
13673;DHT22;6909;52.202;9.876;2024-01-16T01:43:20;1.00;99.90
13673;DHT22;6909;52.202;9.876;2024-01-16T01:45:58;1.00;99.90
13673;DHT22;6909;52.202;9.876;2024-01-16T01:48:28;1.00;99.90
13673;DHT22;6909;52.202;9.876;2024-01-16T01:50:57;1.00;99.90
13673;DHT22;6909;52.202;9.876;2024-01-16T01:53:24;1.00;99.90
13673;DHT22;6909;52.202;9.876;2024-01-16T01:55:51;1.00;99.90
13673;DHT22;6909;52.202;9.876;2024-01-16T01:58:19;1.00;99.90
13673;DHT22;6909;52.202;9.876;2024-01-16T02:00:45;1.00;99.90
13673;DHT22;6909;52.202;9.876;2024-01-16T02:03:13;1.00;99.90
13673;DHT22;6909;52.202;9.876;2024-01-16T02:05:40;1.00;99.90
13673;DHT22;6909;52.202;9.876;2024-01-16T02:08:06;1.10;99.90
13673;DHT22;6909;52.202;9.876;2024-01-16T02:10:35;1.10;99.90
13673;DHT22;6909;52.202;9.876;2024-01-16T02:13:02;1.10;99.90
13673;DHT22;6909;52.202;9.876;2024-01-16T02:15:30;1.00;99.90
13673;DHT22;6909;52.202;9.876;2024-01-16T02:17:57;1.00;99.90
13673;DHT22;6909;52.202;9.876;2024-01-16T02:20:24;1.00;99.90
13673;DHT22;6909;52.202;9.876;2024-01-16T02:22:52;1.00;99.90
13673;DHT22;6909;52.202;9.876;2024-01-16T02:25:21;1.00;99.90
13673;DHT22;6909;52.202;9.876;2024-01-16T02:27:48;0.90;99.90
13673;DHT22;6909;52.202;9.876;2024-01-16T02:30:14;1.00;99.90
13673;DHT22;6909;52.202;9.876;2024-01-16T02:32:41;0.90;99.90
13673;DHT22;6909;52.202;9.876;2024-01-16T02:35:08;0.90;99.90
13673;DHT22;6909;52.202;9.876;2024-01-16T02:37:35;0.80;99.90
13673;DHT22;6909;52.202;9.876;2024-01-16T02:40:02;0.80;99.90
13673;DHT22;6909;52.202;9.876;2024-01-16T02:42:32;0.80;99.90
13673;DHT22;6909;52.202;9.876;2024-01-16T02:44:59;0.80;99.90
13673;DHT22;6909;52.202;9.876;2024-01-16T02:47:26;0.80;99.90
13673;DHT22;6909;52.202;9.876;2024-01-16T02:49:52;0.80;99.90
13673;DHT22;6909;52.202;9.876;2024-01-16T02:52:19;0.80;99.90
13673;DHT22;6909;52.202;9.876;2024-01-16T02:54:46;0.70;99.90
13673;DHT22;6909;52.202;9.876;2024-01-16T02:57:12;0.70;99.90
13673;DHT22;6909;52.202;9.876;2024-01-16T02:59:43;0.70;99.90
13673;DHT22;6909;52.202;9.876;2024-01-16T03:02:10;0.70;99.90
13673;DHT22;6909;52.202;9.876;2024-01-16T03:04:36;0.80;99.90
13673;DHT22;6909;52.202;9.876;2024-01-16T03:07:03;0.80;99.90
13673;DHT22;6909;52.202;9.876;2024-01-16T03:09:30;0.70;99.90
13673;DHT22;6909;52.202;9.876;2024-01-16T03:11:58;0.70;99.90
13673;DHT22;6909;52.202;9.876;2024-01-16T03:14:25;0.60;99.90
13673;DHT22;6909;52.202;9.876;2024-01-16T03:16:53;0.60;99.90
13673;DHT22;6909;52.202;9.876;2024-01-16T03:19:19;0.50;99.90
13673;DHT22;6909;52.202;9.876;2024-01-16T03:21:46;0.50;99.90
13673;DHT22;6909;52.202;9.876;2024-01-16T03:24:14;0.60;99.90
13673;DHT22;6909;52.202;9.876;2024-01-16T03:26:41;0.60;99.90
13673;DHT22;6909;52.202;9.876;2024-01-16T03:29:09;0.60;99.90
13673;DHT22;6909;52.202;9.876;2024-01-16T03:31:36;0.60;99.90
13673;DHT22;6909;52.202;9.876;2024-01-16T03:34:04;0.60;99.90
13673;DHT22;6909;52.202;9.876;2024-01-16T03:36:31;0.50;99.90
13673;DHT22;6909;52.202;9.876;2024-01-16T03:38:57;0.50;99.90
13673;DHT22;6909;52.202;9.876;2024-01-16T03:41:24;0.40;99.90
13673;DHT22;6909;52.202;9.876;2024-01-16T03:43:51;0.40;99.90
13673;DHT22;6909;52.202;9.876;2024-01-16T03:46:19;0.30;99.90
13673;DHT22;6909;52.202;9.876;2024-01-16T03:48:45;0.20;47.40
13673;DHT22;6909;52.202;9.876;2024-01-16T03:51:13;0.20;99.90
13673;DHT22;6909;52.202;9.876;2024-01-16T03:53:40;0.20;99.90
13673;DHT22;6909;52.202;9.876;2024-01-16T03:56:07;0.20;99.90
13673;DHT22;6909;52.202;9.876;2024-01-16T03:58:34;0.10;1.00
13673;DHT22;6909;52.202;9.876;2024-01-16T04:01:00;0.00;1.00
13673;DHT22;6909;52.202;9.876;2024-01-16T04:03:27;0.00;87.50
13673;DHT22;6909;52.202;9.876;2024-01-16T04:05:54;0.10;1.00
13673;DHT22;6909;52.202;9.876;2024-01-16T04:08:22;0.00;99.90
13673;DHT22;6909;52.202;9.876;2024-01-16T04:10:48;0.00;1.00
13673;DHT22;6909;52.202;9.876;2024-01-16T04:13:15;0.10;1.00
13673;DHT22;6909;52.202;9.876;2024-01-16T04:15:41;0.00;99.90
13673;DHT22;6909;52.202;9.876;2024-01-16T04:18:08;0.00;99.90
13673;DHT22;6909;52.202;9.876;2024-01-16T04:20:35;0.00;1.00
13673;DHT22;6909;52.202;9.876;2024-01-16T04:23:03;0.00;1.00
13673;DHT22;6909;52.202;9.876;2024-01-16T04:25:31;0.00;1.00
13673;DHT22;6909;52.202;9.876;2024-01-16T04:27:58;-0.10;99.90
13673;DHT22;6909;52.202;9.876;2024-01-16T04:30:24;-0.10;1.00
13673;DHT22;6909;52.202;9.876;2024-01-16T04:32:51;-0.10;1.00
13673;DHT22;6909;52.202;9.876;2024-01-16T04:35:18;-0.10;99.90
13673;DHT22;6909;52.202;9.876;2024-01-16T04:37:45;-0.20;99.90
13673;DHT22;6909;52.202;9.876;2024-01-16T04:40:11;-0.20;99.90
13673;DHT22;6909;52.202;9.876;2024-01-16T04:42:39;-0.20;1.00
13673;DHT22;6909;52.202;9.876;2024-01-16T04:45:07;-0.10;99.90
13673;DHT22;6909;52.202;9.876;2024-01-16T04:47:33;-0.10;1.00
13673;DHT22;6909;52.202;9.876;2024-01-16T04:50:00;-0.10;1.00
13673;DHT22;6909;52.202;9.876;2024-01-16T04:52:27;-0.10;99.90
13673;DHT22;6909;52.202;9.876;2024-01-16T04:54:53;0.00;1.00
13673;DHT22;6909;52.202;9.876;2024-01-16T04:57:20;0.00;1.00
13673;DHT22;6909;52.202;9.876;2024-01-16T04:59:48;0.00;1.00
13673;DHT22;6909;52.202;9.876;2024-01-16T05:02:14;0.00;1.00
13673;DHT22;6909;52.202;9.876;2024-01-16T05:04:42;0.00;1.00
13673;DHT22;6909;52.202;9.876;2024-01-16T05:07:09;0.00;99.90
13673;DHT22;6909;52.202;9.876;2024-01-16T05:09:35;-0.10;99.90
13673;DHT22;6909;52.202;9.876;2024-01-16T05:12:02;0.00;1.00
13673;DHT22;6909;52.202;9.876;2024-01-16T05:14:29;0.00;99.90
13673;DHT22;6909;52.202;9.876;2024-01-16T05:16:57;0.10;99.90
13673;DHT22;6909;52.202;9.876;2024-01-16T05:19:24;0.00;1.00
13673;DHT22;6909;52.202;9.876;2024-01-16T05:21:50;0.10;1.00
13673;DHT22;6909;52.202;9.876;2024-01-16T05:24:17;0.10;99.90
13673;DHT22;6909;52.202;9.876;2024-01-16T05:26:43;0.10;99.90
13673;DHT22;6909;52.202;9.876;2024-01-16T05:29:10;-0.10;1.00
13673;DHT22;6909;52.202;9.876;2024-01-16T05:31:40;0.00;1.00
13673;DHT22;6909;52.202;9.876;2024-01-16T05:34:08;0.00;99.90
13673;DHT22;6909;52.202;9.876;2024-01-16T05:36:35;-0.10;99.90
13673;DHT22;6909;52.202;9.876;2024-01-16T05:39:02;-0.10;1.00
13673;DHT22;6909;52.202;9.876;2024-01-16T05:41:32;-0.20;1.00
13673;DHT22;6909;52.202;9.876;2024-01-16T05:44:00;-0.20;1.00
13673;DHT22;6909;52.202;9.876;2024-01-16T05:46:28;-0.10;99.90
13673;DHT22;6909;52.202;9.876;2024-01-16T05:48:55;-0.10;99.90
13673;DHT22;6909;52.202;9.876;2024-01-16T05:51:23;0.00;2.70
13673;DHT22;6909;52.202;9.876;2024-01-16T05:53:50;0.00;1.00
13673;DHT22;6909;52.202;9.876;2024-01-16T05:56:16;-0.10;1.00
13673;DHT22;6909;52.202;9.876;2024-01-16T05:58:43;-0.10;1.00
13673;DHT22;6909;52.202;9.876;2024-01-16T06:01:09;-0.10;99.90
13673;DHT22;6909;52.202;9.876;2024-01-16T06:03:38;-0.20;99.90
13673;DHT22;6909;52.202;9.876;2024-01-16T06:06:05;-0.20;99.90
13673;DHT22;6909;52.202;9.876;2024-01-16T06:08:34;-0.20;99.90
13673;DHT22;6909;52.202;9.876;2024-01-16T06:11:00;-0.30;99.90
13673;DHT22;6909;52.202;9.876;2024-01-16T06:13:27;-0.30;1.00
13673;DHT22;6909;52.202;9.876;2024-01-16T06:15:55;-0.20;1.00
13673;DHT22;6909;52.202;9.876;2024-01-16T06:18:22;-0.30;1.00
13673;DHT22;6909;52.202;9.876;2024-01-16T06:20:48;-0.30;1.00
13673;DHT22;6909;52.202;9.876;2024-01-16T06:23:15;-0.40;1.00
13673;DHT22;6909;52.202;9.876;2024-01-16T06:25:43;-0.40;99.90
13673;DHT22;6909;52.202;9.876;2024-01-16T06:28:10;-0.50;99.90
13673;DHT22;6909;52.202;9.876;2024-01-16T06:30:37;-0.50;1.00
13673;DHT22;6909;52.202;9.876;2024-01-16T06:33:04;-0.50;1.00
13673;DHT22;6909;52.202;9.876;2024-01-16T06:35:30;-0.50;35.00
13673;DHT22;6909;52.202;9.876;2024-01-16T06:37:57;-0.40;1.00
13673;DHT22;6909;52.202;9.876;2024-01-16T06:40:23;-0.40;1.00
13673;DHT22;6909;52.202;9.876;2024-01-16T06:42:51;-0.30;1.00
13673;DHT22;6909;52.202;9.876;2024-01-16T06:45:18;-0.30;29.20
13673;DHT22;6909;52.202;9.876;2024-01-16T06:47:45;-0.30;4.40
13673;DHT22;6909;52.202;9.876;2024-01-16T06:50:11;-0.30;99.90
13673;DHT22;6909;52.202;9.876;2024-01-16T06:52:38;-0.30;1.00
13673;DHT22;6909;52.202;9.876;2024-01-16T06:55:05;-0.30;1.00
13673;DHT22;6909;52.202;9.876;2024-01-16T06:57:31;-0.30;1.00
13673;DHT22;6909;52.202;9.876;2024-01-16T06:59:59;-0.20;1.00
13673;DHT22;6909;52.202;9.876;2024-01-16T07:02:26;0.00;1.00
13673;DHT22;6909;52.202;9.876;2024-01-16T07:04:52;0.00;1.00
13673;DHT22;6909;52.202;9.876;2024-01-16T07:07:19;0.00;1.00
13673;DHT22;6909;52.202;9.876;2024-01-16T07:09:46;0.10;1.00
13673;DHT22;6909;52.202;9.876;2024-01-16T07:12:12;0.10;1.00
13673;DHT22;6909;52.202;9.876;2024-01-16T07:14:39;0.10;1.00
13673;DHT22;6909;52.202;9.876;2024-01-16T07:17:07;0.00;1.00
13673;DHT22;6909;52.202;9.876;2024-01-16T07:19:34;0.00;99.90
13673;DHT22;6909;52.202;9.876;2024-01-16T07:22:00;0.00;99.90
13673;DHT22;6909;52.202;9.876;2024-01-16T07:24:27;-0.10;99.90
13673;DHT22;6909;52.202;9.876;2024-01-16T07:26:53;-0.10;99.90
13673;DHT22;6909;52.202;9.876;2024-01-16T07:29:20;-0.10;1.00
13673;DHT22;6909;52.202;9.876;2024-01-16T07:31:47;-0.10;1.00
13673;DHT22;6909;52.202;9.876;2024-01-16T07:34:15;-0.10;1.00
13673;DHT22;6909;52.202;9.876;2024-01-16T07:36:46;-0.10;99.90
13673;DHT22;6909;52.202;9.876;2024-01-16T07:39:13;0.00;1.00
13673;DHT22;6909;52.202;9.876;2024-01-16T07:41:39;0.00;99.90
13673;DHT22;6909;52.202;9.876;2024-01-16T07:44:06;0.10;49.90
13673;DHT22;6909;52.202;9.876;2024-01-16T07:46:33;0.20;99.90
13673;DHT22;6909;52.202;9.876;2024-01-16T07:49:00;0.30;99.90
13673;DHT22;6909;52.202;9.876;2024-01-16T07:51:28;0.30;99.90
13673;DHT22;6909;52.202;9.876;2024-01-16T07:54:05;0.30;1.00
13673;DHT22;6909;52.202;9.876;2024-01-16T07:56:32;0.30;99.90
13673;DHT22;6909;52.202;9.876;2024-01-16T07:58:59;0.30;99.90
13673;DHT22;6909;52.202;9.876;2024-01-16T08:01:26;0.30;99.90
13673;DHT22;6909;52.202;9.876;2024-01-16T08:03:54;0.30;99.90
13673;DHT22;6909;52.202;9.876;2024-01-16T08:06:20;0.30;99.90
13673;DHT22;6909;52.202;9.876;2024-01-16T08:08:48;0.30;99.90
13673;DHT22;6909;52.202;9.876;2024-01-16T08:11:15;0.40;99.90
13673;DHT22;6909;52.202;9.876;2024-01-16T08:13:42;0.40;99.90
13673;DHT22;6909;52.202;9.876;2024-01-16T08:16:09;0.40;99.90
13673;DHT22;6909;52.202;9.876;2024-01-16T08:18:36;0.50;99.90
13673;DHT22;6909;52.202;9.876;2024-01-16T08:21:03;0.60;99.90
13673;DHT22;6909;52.202;9.876;2024-01-16T08:23:30;0.60;99.90
13673;DHT22;6909;52.202;9.876;2024-01-16T08:25:58;0.70;99.90
13673;DHT22;6909;52.202;9.876;2024-01-16T08:28:24;0.70;99.90
13673;DHT22;6909;52.202;9.876;2024-01-16T08:30:51;0.80;99.90
13673;DHT22;6909;52.202;9.876;2024-01-16T08:33:18;0.90;99.90
13673;DHT22;6909;52.202;9.876;2024-01-16T08:35:44;0.90;99.90
13673;DHT22;6909;52.202;9.876;2024-01-16T08:38:11;0.90;99.90
13673;DHT22;6909;52.202;9.876;2024-01-16T08:40:38;1.10;99.90
13673;DHT22;6909;52.202;9.876;2024-01-16T08:43:06;1.10;99.90
13673;DHT22;6909;52.202;9.876;2024-01-16T08:45:33;1.10;99.90
13673;DHT22;6909;52.202;9.876;2024-01-16T08:48:00;1.10;99.90
13673;DHT22;6909;52.202;9.876;2024-01-16T08:50:28;1.10;99.90
13673;DHT22;6909;52.202;9.876;2024-01-16T08:52:54;1.10;99.90
13673;DHT22;6909;52.202;9.876;2024-01-16T08:55:21;1.10;99.90
13673;DHT22;6909;52.202;9.876;2024-01-16T08:57:48;1.00;99.90
13673;DHT22;6909;52.202;9.876;2024-01-16T09:00:16;1.10;99.90
13673;DHT22;6909;52.202;9.876;2024-01-16T09:02:43;1.00;99.90
13673;DHT22;6909;52.202;9.876;2024-01-16T09:05:10;1.10;99.90
13673;DHT22;6909;52.202;9.876;2024-01-16T09:07:38;1.10;99.90
13673;DHT22;6909;52.202;9.876;2024-01-16T09:10:06;1.00;99.90
13673;DHT22;6909;52.202;9.876;2024-01-16T09:12:32;1.00;99.90
13673;DHT22;6909;52.202;9.876;2024-01-16T09:14:59;1.10;99.90
13673;DHT22;6909;52.202;9.876;2024-01-16T09:17:27;1.10;99.90
13673;DHT22;6909;52.202;9.876;2024-01-16T09:19:54;1.10;99.90
13673;DHT22;6909;52.202;9.876;2024-01-16T09:22:20;1.10;99.90
13673;DHT22;6909;52.202;9.876;2024-01-16T09:24:47;1.10;99.90
13673;DHT22;6909;52.202;9.876;2024-01-16T09:27:13;1.20;99.90
13673;DHT22;6909;52.202;9.876;2024-01-16T09:29:42;1.20;99.90
13673;DHT22;6909;52.202;9.876;2024-01-16T09:32:08;1.20;99.90
13673;DHT22;6909;52.202;9.876;2024-01-16T09:34:36;1.30;99.90
13673;DHT22;6909;52.202;9.876;2024-01-16T09:37:03;1.30;99.90
13673;DHT22;6909;52.202;9.876;2024-01-16T09:39:30;1.30;99.90
13673;DHT22;6909;52.202;9.876;2024-01-16T09:41:59;1.50;99.90
13673;DHT22;6909;52.202;9.876;2024-01-16T09:44:27;1.40;99.90
13673;DHT22;6909;52.202;9.876;2024-01-16T09:46:55;1.50;99.90
13673;DHT22;6909;52.202;9.876;2024-01-16T09:49:22;1.50;99.90
13673;DHT22;6909;52.202;9.876;2024-01-16T09:51:50;1.70;99.90
13673;DHT22;6909;52.202;9.876;2024-01-16T09:54:17;1.80;99.90
13673;DHT22;6909;52.202;9.876;2024-01-16T09:56:44;1.90;99.90
13673;DHT22;6909;52.202;9.876;2024-01-16T09:59:16;2.00;99.90
13673;DHT22;6909;52.202;9.876;2024-01-16T10:01:43;2.00;99.90
13673;DHT22;6909;52.202;9.876;2024-01-16T10:04:11;2.10;99.90
13673;DHT22;6909;52.202;9.876;2024-01-16T10:06:39;2.10;99.90
13673;DHT22;6909;52.202;9.876;2024-01-16T10:09:07;2.10;99.90
13673;DHT22;6909;52.202;9.876;2024-01-16T10:11:37;2.10;99.90
13673;DHT22;6909;52.202;9.876;2024-01-16T10:14:07;2.20;99.90
13673;DHT22;6909;52.202;9.876;2024-01-16T10:16:56;2.40;99.90
13673;DHT22;6909;52.202;9.876;2024-01-16T10:19:23;3.00;99.90
13673;DHT22;6909;52.202;9.876;2024-01-16T10:21:51;3.30;99.90
13673;DHT22;6909;52.202;9.876;2024-01-16T10:24:19;3.30;99.90
13673;DHT22;6909;52.202;9.876;2024-01-16T10:26:45;3.30;99.90
13673;DHT22;6909;52.202;9.876;2024-01-16T10:29:23;3.70;99.90
13673;DHT22;6909;52.202;9.876;2024-01-16T10:31:50;3.70;99.90
13673;DHT22;6909;52.202;9.876;2024-01-16T10:34:20;3.60;99.90
13673;DHT22;6909;52.202;9.876;2024-01-16T10:36:49;3.60;99.90
13673;DHT22;6909;52.202;9.876;2024-01-16T10:39:16;3.60;99.90
13673;DHT22;6909;52.202;9.876;2024-01-16T10:41:53;3.70;99.90
13673;DHT22;6909;52.202;9.876;2024-01-16T10:44:20;3.70;99.90
13673;DHT22;6909;52.202;9.876;2024-01-16T10:46:49;3.80;99.90
13673;DHT22;6909;52.202;9.876;2024-01-16T10:49:16;3.80;99.90
13673;DHT22;6909;52.202;9.876;2024-01-16T10:51:43;4.00;99.90
13673;DHT22;6909;52.202;9.876;2024-01-16T10:54:13;4.10;99.90
13673;DHT22;6909;52.202;9.876;2024-01-16T10:56:44;4.10;99.90
13673;DHT22;6909;52.202;9.876;2024-01-16T10:59:18;3.90;99.90
13673;DHT22;6909;52.202;9.876;2024-01-16T11:01:48;4.00;99.90
13673;DHT22;6909;52.202;9.876;2024-01-16T11:04:17;4.10;99.90
13673;DHT22;6909;52.202;9.876;2024-01-16T11:06:44;4.00;99.90
13673;DHT22;6909;52.202;9.876;2024-01-16T11:09:12;4.00;99.90
13673;DHT22;6909;52.202;9.876;2024-01-16T11:11:42;4.20;99.90
13673;DHT22;6909;52.202;9.876;2024-01-16T11:14:11;4.10;99.90
13673;DHT22;6909;52.202;9.876;2024-01-16T11:16:39;3.80;99.90
13673;DHT22;6909;52.202;9.876;2024-01-16T11:19:09;3.60;99.90
13673;DHT22;6909;52.202;9.876;2024-01-16T11:21:37;3.50;99.90
13673;DHT22;6909;52.202;9.876;2024-01-16T11:24:04;3.60;99.90
13673;DHT22;6909;52.202;9.876;2024-01-16T11:26:32;3.30;99.90
13673;DHT22;6909;52.202;9.876;2024-01-16T11:29:34;3.20;99.90
13673;DHT22;6909;52.202;9.876;2024-01-16T11:32:06;3.10;99.90
13673;DHT22;6909;52.202;9.876;2024-01-16T11:34:52;3.10;99.90
13673;DHT22;6909;52.202;9.876;2024-01-16T11:37:26;2.90;99.90
13673;DHT22;6909;52.202;9.876;2024-01-16T11:40:21;2.80;99.90
13673;DHT22;6909;52.202;9.876;2024-01-16T11:42:48;2.70;99.90
13673;DHT22;6909;52.202;9.876;2024-01-16T11:45:50;2.80;99.90
13673;DHT22;6909;52.202;9.876;2024-01-16T11:48:19;2.90;99.90
13673;DHT22;6909;52.202;9.876;2024-01-16T11:50:46;2.80;99.90
13673;DHT22;6909;52.202;9.876;2024-01-16T11:53:35;2.70;99.90
13673;DHT22;6909;52.202;9.876;2024-01-16T11:56:23;2.90;99.90
13673;DHT22;6909;52.202;9.876;2024-01-16T11:59:07;3.00;99.90
13673;DHT22;6909;52.202;9.876;2024-01-16T12:01:41;3.10;99.90
13673;DHT22;6909;52.202;9.876;2024-01-16T12:04:14;3.30;99.90
13673;DHT22;6909;52.202;9.876;2024-01-16T12:06:43;3.20;99.90
13673;DHT22;6909;52.202;9.876;2024-01-16T12:09:13;3.30;99.90
13673;DHT22;6909;52.202;9.876;2024-01-16T12:11:41;3.30;99.90
13673;DHT22;6909;52.202;9.876;2024-01-16T12:14:09;3.00;99.90
13673;DHT22;6909;52.202;9.876;2024-01-16T12:16:36;3.30;99.90
13673;DHT22;6909;52.202;9.876;2024-01-16T12:19:06;3.20;99.90
13673;DHT22;6909;52.202;9.876;2024-01-16T12:21:35;3.20;99.90
13673;DHT22;6909;52.202;9.876;2024-01-16T12:24:05;3.20;99.90
13673;DHT22;6909;52.202;9.876;2024-01-16T12:26:32;3.10;99.90
13673;DHT22;6909;52.202;9.876;2024-01-16T12:28:59;3.10;99.90
13673;DHT22;6909;52.202;9.876;2024-01-16T12:31:27;3.10;99.90
13673;DHT22;6909;52.202;9.876;2024-01-16T12:34:01;3.00;99.90
13673;DHT22;6909;52.202;9.876;2024-01-16T12:36:30;2.90;99.90
13673;DHT22;6909;52.202;9.876;2024-01-16T12:38:58;3.00;99.90
13673;DHT22;6909;52.202;9.876;2024-01-16T12:41:26;3.00;99.90
13673;DHT22;6909;52.202;9.876;2024-01-16T12:43:54;3.10;99.90
13673;DHT22;6909;52.202;9.876;2024-01-16T12:46:20;3.00;99.90
13673;DHT22;6909;52.202;9.876;2024-01-16T12:48:47;2.80;99.90
13673;DHT22;6909;52.202;9.876;2024-01-16T12:51:20;2.40;99.90
13673;DHT22;6909;52.202;9.876;2024-01-16T12:53:47;2.20;99.90
13673;DHT22;6909;52.202;9.876;2024-01-16T12:56:18;2.20;99.90
13673;DHT22;6909;52.202;9.876;2024-01-16T12:58:46;2.10;99.90
13673;DHT22;6909;52.202;9.876;2024-01-16T13:01:24;2.00;99.90
13673;DHT22;6909;52.202;9.876;2024-01-16T13:03:51;2.10;99.90
13673;DHT22;6909;52.202;9.876;2024-01-16T13:06:18;2.10;99.90
13673;DHT22;6909;52.202;9.876;2024-01-16T13:08:45;2.30;99.90
13673;DHT22;6909;52.202;9.876;2024-01-16T13:11:13;2.30;99.90
13673;DHT22;6909;52.202;9.876;2024-01-16T13:13:42;2.20;99.90
13673;DHT22;6909;52.202;9.876;2024-01-16T13:16:09;2.20;99.90
13673;DHT22;6909;52.202;9.876;2024-01-16T13:18:37;2.10;99.90
13673;DHT22;6909;52.202;9.876;2024-01-16T13:21:04;2.10;99.90
13673;DHT22;6909;52.202;9.876;2024-01-16T13:23:31;2.00;99.90
13673;DHT22;6909;52.202;9.876;2024-01-16T13:25:58;1.90;99.90
13673;DHT22;6909;52.202;9.876;2024-01-16T13:28:26;1.90;99.90
13673;DHT22;6909;52.202;9.876;2024-01-16T13:30:55;1.90;99.90
13673;DHT22;6909;52.202;9.876;2024-01-16T13:33:23;1.80;99.90
13673;DHT22;6909;52.202;9.876;2024-01-16T13:35:52;1.90;99.90
13673;DHT22;6909;52.202;9.876;2024-01-16T13:38:20;1.80;99.90
13673;DHT22;6909;52.202;9.876;2024-01-16T13:40:47;1.80;99.90
13673;DHT22;6909;52.202;9.876;2024-01-16T13:43:15;1.80;99.90
13673;DHT22;6909;52.202;9.876;2024-01-16T13:45:42;1.70;99.90
13673;DHT22;6909;52.202;9.876;2024-01-16T13:48:10;1.70;99.90
13673;DHT22;6909;52.202;9.876;2024-01-16T13:50:36;1.70;99.90
13673;DHT22;6909;52.202;9.876;2024-01-16T13:53:03;1.70;99.90
13673;DHT22;6909;52.202;9.876;2024-01-16T13:55:30;1.70;99.90
13673;DHT22;6909;52.202;9.876;2024-01-16T13:57:57;1.70;99.90
13673;DHT22;6909;52.202;9.876;2024-01-16T14:00:24;1.70;99.90
13673;DHT22;6909;52.202;9.876;2024-01-16T14:02:51;1.60;99.90
13673;DHT22;6909;52.202;9.876;2024-01-16T14:05:19;1.60;99.90
13673;DHT22;6909;52.202;9.876;2024-01-16T14:07:49;1.50;99.90
13673;DHT22;6909;52.202;9.876;2024-01-16T14:10:17;1.50;99.90
13673;DHT22;6909;52.202;9.876;2024-01-16T14:12:48;1.50;99.90
13673;DHT22;6909;52.202;9.876;2024-01-16T14:15:16;1.50;99.90
13673;DHT22;6909;52.202;9.876;2024-01-16T14:17:45;1.40;99.90
13673;DHT22;6909;52.202;9.876;2024-01-16T14:20:12;1.50;99.90
13673;DHT22;6909;52.202;9.876;2024-01-16T14:22:41;1.40;99.90
13673;DHT22;6909;52.202;9.876;2024-01-16T14:25:09;1.40;99.90
13673;DHT22;6909;52.202;9.876;2024-01-16T14:27:38;1.40;99.90
13673;DHT22;6909;52.202;9.876;2024-01-16T14:30:07;1.40;99.90
13673;DHT22;6909;52.202;9.876;2024-01-16T14:32:36;1.30;99.90
13673;DHT22;6909;52.202;9.876;2024-01-16T14:35:03;1.30;99.90
13673;DHT22;6909;52.202;9.876;2024-01-16T14:37:30;1.30;99.90
13673;DHT22;6909;52.202;9.876;2024-01-16T14:39:58;1.30;99.90
13673;DHT22;6909;52.202;9.876;2024-01-16T14:42:27;1.30;99.90
13673;DHT22;6909;52.202;9.876;2024-01-16T14:44:54;1.30;99.90
13673;DHT22;6909;52.202;9.876;2024-01-16T14:47:21;1.30;1.00
13673;DHT22;6909;52.202;9.876;2024-01-16T14:49:49;1.20;99.90
13673;DHT22;6909;52.202;9.876;2024-01-16T14:52:16;1.20;99.90
13673;DHT22;6909;52.202;9.876;2024-01-16T14:54:43;1.20;1.00
13673;DHT22;6909;52.202;9.876;2024-01-16T14:57:11;1.10;1.00
13673;DHT22;6909;52.202;9.876;2024-01-16T14:59:39;1.10;99.90
13673;DHT22;6909;52.202;9.876;2024-01-16T15:02:05;1.20;1.00
13673;DHT22;6909;52.202;9.876;2024-01-16T15:04:38;1.10;1.00
13673;DHT22;6909;52.202;9.876;2024-01-16T15:07:04;1.10;99.90
13673;DHT22;6909;52.202;9.876;2024-01-16T15:09:31;1.10;1.00
13673;DHT22;6909;52.202;9.876;2024-01-16T15:12:00;1.10;1.00
13673;DHT22;6909;52.202;9.876;2024-01-16T15:14:28;1.00;1.00
13673;DHT22;6909;52.202;9.876;2024-01-16T15:16:54;1.10;99.90
13673;DHT22;6909;52.202;9.876;2024-01-16T15:19:21;1.00;99.90
13673;DHT22;6909;52.202;9.876;2024-01-16T15:21:47;1.00;1.00
13673;DHT22;6909;52.202;9.876;2024-01-16T15:24:14;0.90;99.90
13673;DHT22;6909;52.202;9.876;2024-01-16T15:26:45;0.90;1.00
13673;DHT22;6909;52.202;9.876;2024-01-16T15:29:12;0.90;1.00
13673;DHT22;6909;52.202;9.876;2024-01-16T15:31:40;0.80;1.00
13673;DHT22;6909;52.202;9.876;2024-01-16T15:34:06;0.80;95.60
13673;DHT22;6909;52.202;9.876;2024-01-16T15:36:33;0.80;1.00
13673;DHT22;6909;52.202;9.876;2024-01-16T15:39:00;0.70;1.00
13673;DHT22;6909;52.202;9.876;2024-01-16T15:41:27;0.60;1.00
13673;DHT22;6909;52.202;9.876;2024-01-16T15:43:54;0.60;99.90
13673;DHT22;6909;52.202;9.876;2024-01-16T15:46:20;0.50;1.00
13673;DHT22;6909;52.202;9.876;2024-01-16T15:48:48;0.40;99.90
13673;DHT22;6909;52.202;9.876;2024-01-16T15:51:16;0.30;1.00
13673;DHT22;6909;52.202;9.876;2024-01-16T15:53:43;0.30;99.90
13673;DHT22;6909;52.202;9.876;2024-01-16T15:56:09;0.30;99.90
13673;DHT22;6909;52.202;9.876;2024-01-16T15:58:36;0.30;1.00
13673;DHT22;6909;52.202;9.876;2024-01-16T16:01:02;0.30;1.00
13673;DHT22;6909;52.202;9.876;2024-01-16T16:03:29;0.30;1.00
13673;DHT22;6909;52.202;9.876;2024-01-16T16:05:57;0.30;1.00